sensor_id;sensor_type;location;lat;lon;timestamp;temperature;humidity
69800;DHT22;67217;51.008;4.644;2023-02-24T00:01:40;6.90;81.00
69800;DHT22;67217;51.008;4.644;2023-02-24T00:04:11;6.80;81.00
69800;DHT22;67217;51.008;4.644;2023-02-24T00:06:40;6.70;81.30
69800;DHT22;67217;51.008;4.644;2023-02-24T00:09:14;6.70;81.60
69800;DHT22;67217;51.008;4.644;2023-02-24T00:11:46;6.70;81.90
69800;DHT22;67217;51.008;4.644;2023-02-24T00:14:15;6.70;82.00
69800;DHT22;67217;51.008;4.644;2023-02-24T00:16:43;6.80;81.60
69800;DHT22;67217;51.008;4.644;2023-02-24T00:19:13;6.80;81.50
69800;DHT22;67217;51.008;4.644;2023-02-24T00:21:42;6.80;80.90
69800;DHT22;67217;51.008;4.644;2023-02-24T00:24:10;6.60;81.50
69800;DHT22;67217;51.008;4.644;2023-02-24T00:26:38;6.60;81.70
69800;DHT22;67217;51.008;4.644;2023-02-24T00:29:09;6.60;81.50
69800;DHT22;67217;51.008;4.644;2023-02-24T00:31:38;6.50;81.90
69800;DHT22;67217;51.008;4.644;2023-02-24T00:34:08;6.40;82.30
69800;DHT22;67217;51.008;4.644;2023-02-24T00:36:37;6.20;82.90
69800;DHT22;67217;51.008;4.644;2023-02-24T00:39:07;6.20;82.70
69800;DHT22;67217;51.008;4.644;2023-02-24T00:41:40;6.10;82.60
69800;DHT22;67217;51.008;4.644;2023-02-24T00:44:11;6.00;82.70
69800;DHT22;67217;51.008;4.644;2023-02-24T00:46:46;6.00;84.00
69800;DHT22;67217;51.008;4.644;2023-02-24T00:49:16;5.80;83.70
69800;DHT22;67217;51.008;4.644;2023-02-24T00:51:46;5.80;84.30
69800;DHT22;67217;51.008;4.644;2023-02-24T00:54:15;5.90;84.20
69800;DHT22;67217;51.008;4.644;2023-02-24T00:56:45;6.00;84.00
69800;DHT22;67217;51.008;4.644;2023-02-24T00:59:16;6.00;84.20
69800;DHT22;67217;51.008;4.644;2023-02-24T01:01:45;6.00;84.30
69800;DHT22;67217;51.008;4.644;2023-02-24T01:04:15;6.00;84.00
69800;DHT22;67217;51.008;4.644;2023-02-24T01:06:47;6.00;84.30
69800;DHT22;67217;51.008;4.644;2023-02-24T01:09:17;6.10;83.90
69800;DHT22;67217;51.008;4.644;2023-02-24T01:11:47;6.10;84.00
69800;DHT22;67217;51.008;4.644;2023-02-24T01:14:30;6.10;84.10
69800;DHT22;67217;51.008;4.644;2023-02-24T01:16:59;6.20;84.00
69800;DHT22;67217;51.008;4.644;2023-02-24T01:19:29;6.20;84.00
69800;DHT22;67217;51.008;4.644;2023-02-24T01:21:58;6.20;83.90
69800;DHT22;67217;51.008;4.644;2023-02-24T01:24:27;6.20;84.10
69800;DHT22;67217;51.008;4.644;2023-02-24T01:26:55;6.20;84.00
69800;DHT22;67217;51.008;4.644;2023-02-24T01:29:23;6.20;83.90
69800;DHT22;67217;51.008;4.644;2023-02-24T01:31:51;6.40;83.80
69800;DHT22;67217;51.008;4.644;2023-02-24T01:34:21;6.40;83.50
69800;DHT22;67217;51.008;4.644;2023-02-24T01:36:49;6.40;83.70
69800;DHT22;67217;51.008;4.644;2023-02-24T01:39:17;6.30;83.50
69800;DHT22;67217;51.008;4.644;2023-02-24T01:41:47;6.40;83.30
69800;DHT22;67217;51.008;4.644;2023-02-24T01:46:51;6.30;83.50
69800;DHT22;67217;51.008;4.644;2023-02-24T01:52:15;6.30;83.70
69800;DHT22;67217;51.008;4.644;2023-02-24T01:54:49;6.50;82.90
69800;DHT22;67217;51.008;4.644;2023-02-24T01:57:18;6.50;82.90
69800;DHT22;67217;51.008;4.644;2023-02-24T01:59:49;6.50;82.50
69800;DHT22;67217;51.008;4.644;2023-02-24T02:02:19;6.50;82.30
69800;DHT22;67217;51.008;4.644;2023-02-24T02:04:57;6.50;82.30
69800;DHT22;67217;51.008;4.644;2023-02-24T02:07:27;6.40;82.60
69800;DHT22;67217;51.008;4.644;2023-02-24T02:09:57;6.30;82.60
69800;DHT22;67217;51.008;4.644;2023-02-24T02:12:32;6.30;82.60
69800;DHT22;67217;51.008;4.644;2023-02-24T02:15:03;6.40;82.60
69800;DHT22;67217;51.008;4.644;2023-02-24T02:23:16;6.40;81.60
69800;DHT22;67217;51.008;4.644;2023-02-24T02:29:09;6.40;81.40
69800;DHT22;67217;51.008;4.644;2023-02-24T02:34:43;6.50;80.50
69800;DHT22;67217;51.008;4.644;2023-02-24T02:40:00;6.50;80.70
69800;DHT22;67217;51.008;4.644;2023-02-24T02:42:46;6.50;80.60
69800;DHT22;67217;51.008;4.644;2023-02-24T02:48:11;6.60;80.00
69800;DHT22;67217;51.008;4.644;2023-02-24T02:50:53;6.40;79.80
69800;DHT22;67217;51.008;4.644;2023-02-24T02:53:33;6.40;80.20
69800;DHT22;67217;51.008;4.644;2023-02-24T02:56:17;6.40;80.10
69800;DHT22;67217;51.008;4.644;2023-02-24T02:58:33;6.40;80.40
69800;DHT22;67217;51.008;4.644;2023-02-24T03:01:02;6.40;80.50
69800;DHT22;67217;51.008;4.644;2023-02-24T03:03:35;6.50;80.30
69800;DHT22;67217;51.008;4.644;2023-02-24T03:08:38;6.40;80.10
69800;DHT22;67217;51.008;4.644;2023-02-24T03:11:11;6.40;80.50
69800;DHT22;67217;51.008;4.644;2023-02-24T03:13:41;6.50;80.30
69800;DHT22;67217;51.008;4.644;2023-02-24T03:16:11;6.50;80.10
69800;DHT22;67217;51.008;4.644;2023-02-24T03:18:52;6.50;80.00
69800;DHT22;67217;51.008;4.644;2023-02-24T03:21:24;6.40;80.20
69800;DHT22;67217;51.008;4.644;2023-02-24T03:23:51;6.40;80.40
69800;DHT22;67217;51.008;4.644;2023-02-24T03:29:08;6.30;80.30
69800;DHT22;67217;51.008;4.644;2023-02-24T03:31:51;6.30;80.50
69800;DHT22;67217;51.008;4.644;2023-02-24T03:34:17;6.30;80.00
69800;DHT22;67217;51.008;4.644;2023-02-24T03:36:46;6.30;80.70
69800;DHT22;67217;51.008;4.644;2023-02-24T03:39:15;6.30;80.80
69800;DHT22;67217;51.008;4.644;2023-02-24T03:42:05;6.30;79.60
69800;DHT22;67217;51.008;4.644;2023-02-24T03:44:29;6.30;80.40
69800;DHT22;67217;51.008;4.644;2023-02-24T03:46:57;6.40;80.00
69800;DHT22;67217;51.008;4.644;2023-02-24T03:49:25;6.50;80.00
69800;DHT22;67217;51.008;4.644;2023-02-24T03:55:16;6.50;79.90
69800;DHT22;67217;51.008;4.644;2023-02-24T03:58:01;6.50;80.00
69800;DHT22;67217;51.008;4.644;2023-02-24T04:03:17;6.40;80.00
69800;DHT22;67217;51.008;4.644;2023-02-24T04:05:52;6.30;80.20
69800;DHT22;67217;51.008;4.644;2023-02-24T04:08:20;6.40;80.30
69800;DHT22;67217;51.008;4.644;2023-02-24T04:11:32;6.10;80.10
69800;DHT22;67217;51.008;4.644;2023-02-24T04:13:53;6.30;80.20
69800;DHT22;67217;51.008;4.644;2023-02-24T04:16:22;6.20;80.70
69800;DHT22;67217;51.008;4.644;2023-02-24T04:18:52;6.20;80.00
69800;DHT22;67217;51.008;4.644;2023-02-24T04:21:21;6.20;79.80
69800;DHT22;67217;51.008;4.644;2023-02-24T04:23:49;6.20;79.90
69800;DHT22;67217;51.008;4.644;2023-02-24T04:26:18;6.20;80.50
69800;DHT22;67217;51.008;4.644;2023-02-24T04:28:47;6.30;80.10
69800;DHT22;67217;51.008;4.644;2023-02-24T04:31:15;6.40;79.10
69800;DHT22;67217;51.008;4.644;2023-02-24T04:33:45;6.30;79.10
69800;DHT22;67217;51.008;4.644;2023-02-24T04:36:20;6.30;79.10
69800;DHT22;67217;51.008;4.644;2023-02-24T04:38:48;6.40;79.30
69800;DHT22;67217;51.008;4.644;2023-02-24T04:41:18;6.40;79.00
69800;DHT22;67217;51.008;4.644;2023-02-24T04:43:50;6.40;79.20
69800;DHT22;67217;51.008;4.644;2023-02-24T04:46:19;6.20;79.80
69800;DHT22;67217;51.008;4.644;2023-02-24T04:48:48;6.20;79.80
69800;DHT22;67217;51.008;4.644;2023-02-24T04:51:16;6.30;79.70
69800;DHT22;67217;51.008;4.644;2023-02-24T04:53:46;6.40;79.10
69800;DHT22;67217;51.008;4.644;2023-02-24T04:56:15;6.20;79.30
69800;DHT22;67217;51.008;4.644;2023-02-24T04:58:45;6.20;79.90
69800;DHT22;67217;51.008;4.644;2023-02-24T05:01:12;6.20;79.40
69800;DHT22;67217;51.008;4.644;2023-02-24T05:03:40;6.30;79.30
69800;DHT22;67217;51.008;4.644;2023-02-24T05:06:13;6.20;80.30
69800;DHT22;67217;51.008;4.644;2023-02-24T05:08:42;6.10;80.70
69800;DHT22;67217;51.008;4.644;2023-02-24T05:11:16;6.10;80.90
69800;DHT22;67217;51.008;4.644;2023-02-24T05:13:44;6.00;81.40
69800;DHT22;67217;51.008;4.644;2023-02-24T05:16:16;6.20;80.50
69800;DHT22;67217;51.008;4.644;2023-02-24T05:18:43;6.20;80.90
69800;DHT22;67217;51.008;4.644;2023-02-24T05:21:15;6.20;80.90
69800;DHT22;67217;51.008;4.644;2023-02-24T05:24:01;6.20;80.30
69800;DHT22;67217;51.008;4.644;2023-02-24T05:26:38;6.10;79.20
69800;DHT22;67217;51.008;4.644;2023-02-24T05:29:09;6.00;79.80
69800;DHT22;67217;51.008;4.644;2023-02-24T05:31:37;6.00;79.20
69800;DHT22;67217;51.008;4.644;2023-02-24T05:34:07;6.00;79.20
69800;DHT22;67217;51.008;4.644;2023-02-24T05:36:36;5.90;79.60
69800;DHT22;67217;51.008;4.644;2023-02-24T05:39:06;5.70;80.60
69800;DHT22;67217;51.008;4.644;2023-02-24T05:41:36;5.60;81.30
69800;DHT22;67217;51.008;4.644;2023-02-24T05:44:07;5.60;81.00
69800;DHT22;67217;51.008;4.644;2023-02-24T05:46:37;5.60;80.90
69800;DHT22;67217;51.008;4.644;2023-02-24T05:49:14;5.40;81.50
69800;DHT22;67217;51.008;4.644;2023-02-24T05:51:44;5.30;82.40
69800;DHT22;67217;51.008;4.644;2023-02-24T05:54:13;5.30;82.90
69800;DHT22;67217;51.008;4.644;2023-02-24T05:56:41;5.30;83.20
69800;DHT22;67217;51.008;4.644;2023-02-24T05:59:12;5.30;83.00
69800;DHT22;67217;51.008;4.644;2023-02-24T06:01:42;5.30;82.20
69800;DHT22;67217;51.008;4.644;2023-02-24T06:04:14;5.20;83.00
69800;DHT22;67217;51.008;4.644;2023-02-24T06:06:51;5.30;82.60
69800;DHT22;67217;51.008;4.644;2023-02-24T06:09:19;5.30;81.90
69800;DHT22;67217;51.008;4.644;2023-02-24T06:11:48;5.20;82.10
69800;DHT22;67217;51.008;4.644;2023-02-24T06:14:16;5.20;81.90
69800;DHT22;67217;51.008;4.644;2023-02-24T06:16:43;5.20;81.70
69800;DHT22;67217;51.008;4.644;2023-02-24T06:19:12;5.00;82.90
69800;DHT22;67217;51.008;4.644;2023-02-24T06:21:41;4.90;83.80
69800;DHT22;67217;51.008;4.644;2023-02-24T06:24:13;4.80;84.00
69800;DHT22;67217;51.008;4.644;2023-02-24T06:26:42;4.90;84.30
69800;DHT22;67217;51.008;4.644;2023-02-24T06:29:14;4.90;83.50
69800;DHT22;67217;51.008;4.644;2023-02-24T06:31:42;4.90;83.80
69800;DHT22;67217;51.008;4.644;2023-02-24T06:34:11;4.90;83.70
69800;DHT22;67217;51.008;4.644;2023-02-24T06:36:39;5.10;83.10
69800;DHT22;67217;51.008;4.644;2023-02-24T06:39:09;5.00;82.80
69800;DHT22;67217;51.008;4.644;2023-02-24T06:41:38;5.10;82.90
69800;DHT22;67217;51.008;4.644;2023-02-24T06:44:07;5.10;82.60
69800;DHT22;67217;51.008;4.644;2023-02-24T06:46:36;4.90;83.70
69800;DHT22;67217;51.008;4.644;2023-02-24T06:49:04;4.90;84.40
69800;DHT22;67217;51.008;4.644;2023-02-24T06:51:33;5.00;83.80
69800;DHT22;67217;51.008;4.644;2023-02-24T06:54:00;5.10;82.90
69800;DHT22;67217;51.008;4.644;2023-02-24T06:56:28;5.20;82.50
69800;DHT22;67217;51.008;4.644;2023-02-24T06:58:58;5.20;82.80
69800;DHT22;67217;51.008;4.644;2023-02-24T07:01:27;5.10;83.10
69800;DHT22;67217;51.008;4.644;2023-02-24T07:03:56;5.10;83.20
69800;DHT22;67217;51.008;4.644;2023-02-24T07:06:37;5.00;83.70
69800;DHT22;67217;51.008;4.644;2023-02-24T07:09:12;5.10;83.40
69800;DHT22;67217;51.008;4.644;2023-02-24T07:11:38;5.10;83.40
69800;DHT22;67217;51.008;4.644;2023-02-24T07:14:08;5.00;83.70
69800;DHT22;67217;51.008;4.644;2023-02-24T07:16:39;5.20;83.20
69800;DHT22;67217;51.008;4.644;2023-02-24T07:19:13;5.20;82.60
69800;DHT22;67217;51.008;4.644;2023-02-24T07:21:43;5.10;83.00
69800;DHT22;67217;51.008;4.644;2023-02-24T07:24:20;4.90;83.80
69800;DHT22;67217;51.008;4.644;2023-02-24T07:26:58;5.10;83.40
69800;DHT22;67217;51.008;4.644;2023-02-24T07:29:29;5.10;83.20
69800;DHT22;67217;51.008;4.644;2023-02-24T07:31:59;5.30;82.60
69800;DHT22;67217;51.008;4.644;2023-02-24T07:34:29;5.40;82.00
69800;DHT22;67217;51.008;4.644;2023-02-24T07:36:59;5.30;82.70
69800;DHT22;67217;51.008;4.644;2023-02-24T07:39:29;5.30;82.80
69800;DHT22;67217;51.008;4.644;2023-02-24T07:41:58;5.30;82.50
69800;DHT22;67217;51.008;4.644;2023-02-24T07:44:25;5.50;81.80
69800;DHT22;67217;51.008;4.644;2023-02-24T07:46:55;5.50;81.70
69800;DHT22;67217;51.008;4.644;2023-02-24T07:49:24;5.60;81.70
69800;DHT22;67217;51.008;4.644;2023-02-24T07:51:54;5.60;81.50
69800;DHT22;67217;51.008;4.644;2023-02-24T07:54:25;5.80;81.20
69800;DHT22;67217;51.008;4.644;2023-02-24T07:56:56;5.90;80.80
69800;DHT22;67217;51.008;4.644;2023-02-24T07:59:30;6.00;81.00
69800;DHT22;67217;51.008;4.644;2023-02-24T08:01:55;6.10;80.40
69800;DHT22;67217;51.008;4.644;2023-02-24T08:04:26;6.10;79.60
69800;DHT22;67217;51.008;4.644;2023-02-24T08:06:54;6.20;80.00
69800;DHT22;67217;51.008;4.644;2023-02-24T08:09:24;6.30;79.60
69800;DHT22;67217;51.008;4.644;2023-02-24T08:12:14;6.30;78.50
69800;DHT22;67217;51.008;4.644;2023-02-24T08:14:51;6.30;78.30
69800;DHT22;67217;51.008;4.644;2023-02-24T08:17:23;6.30;77.10
69800;DHT22;67217;51.008;4.644;2023-02-24T08:22:19;6.40;76.90
69800;DHT22;67217;51.008;4.644;2023-02-24T08:24:54;6.50;76.20
69800;DHT22;67217;51.008;4.644;2023-02-24T08:27:24;6.60;75.00
69800;DHT22;67217;51.008;4.644;2023-02-24T08:29:54;6.60;75.10
69800;DHT22;67217;51.008;4.644;2023-02-24T08:32:27;6.60;74.60
69800;DHT22;67217;51.008;4.644;2023-02-24T08:35:01;6.70;74.30
69800;DHT22;67217;51.008;4.644;2023-02-24T08:37:53;6.70;73.90
69800;DHT22;67217;51.008;4.644;2023-02-24T08:40:27;6.80;73.60
69800;DHT22;67217;51.008;4.644;2023-02-24T08:43:10;6.90;73.60
69800;DHT22;67217;51.008;4.644;2023-02-24T08:45:57;6.90;73.10
69800;DHT22;67217;51.008;4.644;2023-02-24T08:48:34;7.00;72.20
69800;DHT22;67217;51.008;4.644;2023-02-24T08:53:45;7.30;71.20
69800;DHT22;67217;51.008;4.644;2023-02-24T08:56:15;7.40;69.60
69800;DHT22;67217;51.008;4.644;2023-02-24T08:58:45;7.40;70.00
69800;DHT22;67217;51.008;4.644;2023-02-24T09:01:18;7.60;69.00
69800;DHT22;67217;51.008;4.644;2023-02-24T09:03:55;7.40;68.30
69800;DHT22;67217;51.008;4.644;2023-02-24T09:06:22;7.50;68.60
69800;DHT22;67217;51.008;4.644;2023-02-24T09:08:54;7.50;69.40
69800;DHT22;67217;51.008;4.644;2023-02-24T09:11:40;7.60;67.60
69800;DHT22;67217;51.008;4.644;2023-02-24T09:14:15;7.60;68.20
69800;DHT22;67217;51.008;4.644;2023-02-24T09:16:45;7.70;67.90
69800;DHT22;67217;51.008;4.644;2023-02-24T09:19:43;7.90;68.10
69800;DHT22;67217;51.008;4.644;2023-02-24T09:22:26;8.20;67.00
69800;DHT22;67217;51.008;4.644;2023-02-24T09:25:12;8.10;67.10
69800;DHT22;67217;51.008;4.644;2023-02-24T09:28:03;8.30;63.40
69800;DHT22;67217;51.008;4.644;2023-02-24T09:30:27;8.30;64.50
69800;DHT22;67217;51.008;4.644;2023-02-24T09:33:13;8.40;65.10
69800;DHT22;67217;51.008;4.644;2023-02-24T09:38:16;7.90;65.20
69800;DHT22;67217;51.008;4.644;2023-02-24T09:40:46;8.10;66.00
69800;DHT22;67217;51.008;4.644;2023-02-24T09:43:22;8.20;64.70
69800;DHT22;67217;51.008;4.644;2023-02-24T09:48:32;8.50;62.70
69800;DHT22;67217;51.008;4.644;2023-02-24T09:50:59;8.60;63.00
69800;DHT22;67217;51.008;4.644;2023-02-24T09:53:30;8.50;63.20
69800;DHT22;67217;51.008;4.644;2023-02-24T09:56:12;8.40;63.60
69800;DHT22;67217;51.008;4.644;2023-02-24T09:58:48;8.40;64.90
69800;DHT22;67217;51.008;4.644;2023-02-24T10:01:28;8.40;63.80
69800;DHT22;67217;51.008;4.644;2023-02-24T10:04:14;8.20;61.90
69800;DHT22;67217;51.008;4.644;2023-02-24T10:09:36;8.10;65.80
69800;DHT22;67217;51.008;4.644;2023-02-24T10:14:52;8.20;63.60
69800;DHT22;67217;51.008;4.644;2023-02-24T10:17:23;8.00;63.70
69800;DHT22;67217;51.008;4.644;2023-02-24T10:19:56;8.00;65.00
69800;DHT22;67217;51.008;4.644;2023-02-24T10:22:40;7.90;64.40
69800;DHT22;67217;51.008;4.644;2023-02-24T10:28:32;7.90;64.90
69800;DHT22;67217;51.008;4.644;2023-02-24T10:31:14;7.90;64.80
69800;DHT22;67217;51.008;4.644;2023-02-24T10:34:11;7.70;65.30
69800;DHT22;67217;51.008;4.644;2023-02-24T10:36:35;7.70;64.30
69800;DHT22;67217;51.008;4.644;2023-02-24T10:39:14;7.80;66.10
69800;DHT22;67217;51.008;4.644;2023-02-24T10:41:45;7.80;64.60
69800;DHT22;67217;51.008;4.644;2023-02-24T10:44:21;7.80;64.80
69800;DHT22;67217;51.008;4.644;2023-02-24T10:47:01;8.00;64.40
69800;DHT22;67217;51.008;4.644;2023-02-24T10:49:38;8.00;65.10
69800;DHT22;67217;51.008;4.644;2023-02-24T10:52:04;8.10;63.40
69800;DHT22;67217;51.008;4.644;2023-02-24T10:54:34;8.30;64.60
69800;DHT22;67217;51.008;4.644;2023-02-24T10:57:13;8.40;63.20
69800;DHT22;67217;51.008;4.644;2023-02-24T10:59:52;8.20;62.40
69800;DHT22;67217;51.008;4.644;2023-02-24T11:02:43;8.40;62.90
69800;DHT22;67217;51.008;4.644;2023-02-24T11:05:25;8.50;62.00
69800;DHT22;67217;51.008;4.644;2023-02-24T11:08:16;8.60;61.80
69800;DHT22;67217;51.008;4.644;2023-02-24T11:11:14;8.80;61.90
69800;DHT22;67217;51.008;4.644;2023-02-24T11:13:49;9.00;60.60
69800;DHT22;67217;51.008;4.644;2023-02-24T11:16:47;9.20;61.30
69800;DHT22;67217;51.008;4.644;2023-02-24T11:19:47;9.40;60.00
69800;DHT22;67217;51.008;4.644;2023-02-24T11:22:03;9.40;59.10
69800;DHT22;67217;51.008;4.644;2023-02-24T11:24:35;9.30;61.70
69800;DHT22;67217;51.008;4.644;2023-02-24T11:27:05;9.30;61.10
69800;DHT22;67217;51.008;4.644;2023-02-24T11:30:00;9.60;58.60
69800;DHT22;67217;51.008;4.644;2023-02-24T11:32:53;9.40;59.00
69800;DHT22;67217;51.008;4.644;2023-02-24T11:38:04;9.50;59.00
69800;DHT22;67217;51.008;4.644;2023-02-24T11:40:36;9.40;59.10
69800;DHT22;67217;51.008;4.644;2023-02-24T11:43:11;9.20;60.70
69800;DHT22;67217;51.008;4.644;2023-02-24T11:45:51;9.40;60.00
69800;DHT22;67217;51.008;4.644;2023-02-24T11:48:33;9.30;59.90
69800;DHT22;67217;51.008;4.644;2023-02-24T11:51:22;8.80;62.40
69800;DHT22;67217;51.008;4.644;2023-02-24T11:54:07;8.80;62.00
69800;DHT22;67217;51.008;4.644;2023-02-24T11:56:44;9.00;62.50
69800;DHT22;67217;51.008;4.644;2023-02-24T12:05:03;9.00;62.20
69800;DHT22;67217;51.008;4.644;2023-02-24T12:07:33;9.30;61.70
69800;DHT22;67217;51.008;4.644;2023-02-24T12:10:04;9.40;61.00
69800;DHT22;67217;51.008;4.644;2023-02-24T12:12:40;9.50;61.20
69800;DHT22;67217;51.008;4.644;2023-02-24T12:15:23;9.50;60.40
69800;DHT22;67217;51.008;4.644;2023-02-24T12:20:45;9.30;61.60
69800;DHT22;67217;51.008;4.644;2023-02-24T12:23:20;9.40;61.70
69800;DHT22;67217;51.008;4.644;2023-02-24T12:31:39;9.70;61.10
69800;DHT22;67217;51.008;4.644;2023-02-24T12:37:11;9.80;60.40
69800;DHT22;67217;51.008;4.644;2023-02-24T12:39:43;9.80;60.20
69800;DHT22;67217;51.008;4.644;2023-02-24T12:42:27;9.80;60.20
69800;DHT22;67217;51.008;4.644;2023-02-24T12:50:40;9.30;63.00
69800;DHT22;67217;51.008;4.644;2023-02-24T12:53:31;9.20;64.10
69800;DHT22;67217;51.008;4.644;2023-02-24T12:58:56;9.20;63.60
69800;DHT22;67217;51.008;4.644;2023-02-24T13:01:27;9.20;63.80
69800;DHT22;67217;51.008;4.644;2023-02-24T13:15:22;9.20;64.70
69800;DHT22;67217;51.008;4.644;2023-02-24T13:17:50;9.20;64.70
69800;DHT22;67217;51.008;4.644;2023-02-24T13:20:30;9.10;65.70
69800;DHT22;67217;51.008;4.644;2023-02-24T13:22:59;9.00;66.10
69800;DHT22;67217;51.008;4.644;2023-02-24T13:25:34;8.90;67.30
69800;DHT22;67217;51.008;4.644;2023-02-24T13:28:05;8.90;67.90
69800;DHT22;67217;51.008;4.644;2023-02-24T13:30:40;8.90;67.80
69800;DHT22;67217;51.008;4.644;2023-02-24T13:33:22;8.90;69.60
69800;DHT22;67217;51.008;4.644;2023-02-24T13:36:07;9.00;68.70
69800;DHT22;67217;51.008;4.644;2023-02-24T13:38:36;9.20;69.30
69800;DHT22;67217;51.008;4.644;2023-02-24T13:43:37;9.20;70.40
69800;DHT22;67217;51.008;4.644;2023-02-24T13:46:15;8.90;71.50
69800;DHT22;67217;51.008;4.644;2023-02-24T13:48:59;8.80;73.30
69800;DHT22;67217;51.008;4.644;2023-02-24T13:52:03;8.70;73.90
69800;DHT22;67217;51.008;4.644;2023-02-24T13:57:03;8.70;75.20
69800;DHT22;67217;51.008;4.644;2023-02-24T14:02:19;8.70;76.70
69800;DHT22;67217;51.008;4.644;2023-02-24T14:04:56;8.60;77.00
69800;DHT22;67217;51.008;4.644;2023-02-24T14:07:27;8.50;77.10
69800;DHT22;67217;51.008;4.644;2023-02-24T14:10:20;8.50;78.10
69800;DHT22;67217;51.008;4.644;2023-02-24T14:12:46;8.50;78.20
69800;DHT22;67217;51.008;4.644;2023-02-24T14:15:22;8.30;80.00
69800;DHT22;67217;51.008;4.644;2023-02-24T14:17:56;8.20;80.50
69800;DHT22;67217;51.008;4.644;2023-02-24T14:20:26;8.20;82.40
69800;DHT22;67217;51.008;4.644;2023-02-24T14:22:56;8.30;82.90
69800;DHT22;67217;51.008;4.644;2023-02-24T14:25:35;8.40;83.30
69800;DHT22;67217;51.008;4.644;2023-02-24T14:28:04;8.30;84.00
69800;DHT22;67217;51.008;4.644;2023-02-24T14:30:39;8.20;84.60
69800;DHT22;67217;51.008;4.644;2023-02-24T14:33:14;8.10;85.80
69800;DHT22;67217;51.008;4.644;2023-02-24T14:35:44;8.10;86.10
69800;DHT22;67217;51.008;4.644;2023-02-24T14:41:19;8.50;83.40
69800;DHT22;67217;51.008;4.644;2023-02-24T14:43:49;8.30;84.50
69800;DHT22;67217;51.008;4.644;2023-02-24T14:46:17;8.20;84.90
69800;DHT22;67217;51.008;4.644;2023-02-24T14:48:50;8.10;86.00
69800;DHT22;67217;51.008;4.644;2023-02-24T14:51:25;8.10;86.20
69800;DHT22;67217;51.008;4.644;2023-02-24T14:53:56;7.90;87.00
69800;DHT22;67217;51.008;4.644;2023-02-24T14:56:27;8.10;87.30
69800;DHT22;67217;51.008;4.644;2023-02-24T14:59:00;8.10;87.40
69800;DHT22;67217;51.008;4.644;2023-02-24T15:01:31;8.10;87.40
69800;DHT22;67217;51.008;4.644;2023-02-24T15:04:13;8.10;87.30
69800;DHT22;67217;51.008;4.644;2023-02-24T15:06:42;8.10;87.70
69800;DHT22;67217;51.008;4.644;2023-02-24T15:09:18;8.10;87.30
69800;DHT22;67217;51.008;4.644;2023-02-24T15:11:44;8.10;87.40
69800;DHT22;67217;51.008;4.644;2023-02-24T15:14:26;8.00;88.10
69800;DHT22;67217;51.008;4.644;2023-02-24T15:17:00;8.00;87.70
69800;DHT22;67217;51.008;4.644;2023-02-24T15:19:36;8.10;87.80
69800;DHT22;67217;51.008;4.644;2023-02-24T15:24:51;8.10;87.70
69800;DHT22;67217;51.008;4.644;2023-02-24T15:27:24;8.00;88.60
69800;DHT22;67217;51.008;4.644;2023-02-24T15:30:07;8.00;88.60
69800;DHT22;67217;51.008;4.644;2023-02-24T15:32:36;8.10;88.60
69800;DHT22;67217;51.008;4.644;2023-02-24T15:35:05;8.30;88.00
69800;DHT22;67217;51.008;4.644;2023-02-24T15:37:38;8.30;87.20
69800;DHT22;67217;51.008;4.644;2023-02-24T15:42:59;8.30;87.20
69800;DHT22;67217;51.008;4.644;2023-02-24T15:45:33;8.40;87.00
69800;DHT22;67217;51.008;4.644;2023-02-24T15:48:15;8.30;87.90
69800;DHT22;67217;51.008;4.644;2023-02-24T15:50:32;8.30;87.00
69800;DHT22;67217;51.008;4.644;2023-02-24T15:53:02;8.30;87.70
69800;DHT22;67217;51.008;4.644;2023-02-24T15:55:30;8.20;89.20
69800;DHT22;67217;51.008;4.644;2023-02-24T15:58:02;8.30;88.70
69800;DHT22;67217;51.008;4.644;2023-02-24T16:00:30;8.30;87.70
69800;DHT22;67217;51.008;4.644;2023-02-24T16:02:58;8.30;88.20
69800;DHT22;67217;51.008;4.644;2023-02-24T16:05:26;8.40;88.10
69800;DHT22;67217;51.008;4.644;2023-02-24T16:07:54;8.30;87.70
69800;DHT22;67217;51.008;4.644;2023-02-24T16:10:27;8.30;88.00
69800;DHT22;67217;51.008;4.644;2023-02-24T16:12:56;8.30;88.00
69800;DHT22;67217;51.008;4.644;2023-02-24T16:15:29;8.30;87.70
69800;DHT22;67217;51.008;4.644;2023-02-24T16:17:57;8.30;88.00
69800;DHT22;67217;51.008;4.644;2023-02-24T16:20:26;8.40;87.90
69800;DHT22;67217;51.008;4.644;2023-02-24T16:22:57;8.40;87.30
69800;DHT22;67217;51.008;4.644;2023-02-24T16:25:26;8.40;87.50
69800;DHT22;67217;51.008;4.644;2023-02-24T16:27:54;8.40;87.90
69800;DHT22;67217;51.008;4.644;2023-02-24T16:30:27;8.60;87.40
69800;DHT22;67217;51.008;4.644;2023-02-24T16:32:56;8.50;87.10
69800;DHT22;67217;51.008;4.644;2023-02-24T16:35:26;8.60;86.70
69800;DHT22;67217;51.008;4.644;2023-02-24T16:37:54;8.50;86.40
69800;DHT22;67217;51.008;4.644;2023-02-24T16:40:24;8.50;86.60
69800;DHT22;67217;51.008;4.644;2023-02-24T16:42:53;8.50;87.20
69800;DHT22;67217;51.008;4.644;2023-02-24T16:45:26;8.40;88.10
69800;DHT22;67217;51.008;4.644;2023-02-24T16:47:56;8.30;88.10
69800;DHT22;67217;51.008;4.644;2023-02-24T16:50:33;8.40;86.70
69800;DHT22;67217;51.008;4.644;2023-02-24T16:53:01;8.40;86.70
69800;DHT22;67217;51.008;4.644;2023-02-24T16:55:29;8.50;86.10
69800;DHT22;67217;51.008;4.644;2023-02-24T16:57:57;8.50;85.40
69800;DHT22;67217;51.008;4.644;2023-02-24T17:00:25;8.40;85.40
69800;DHT22;67217;51.008;4.644;2023-02-24T17:02:53;8.20;86.20
69800;DHT22;67217;51.008;4.644;2023-02-24T17:05:23;8.10;86.00
69800;DHT22;67217;51.008;4.644;2023-02-24T17:07:53;8.10;85.30
69800;DHT22;67217;51.008;4.644;2023-02-24T17:10:21;8.00;85.20
69800;DHT22;67217;51.008;4.644;2023-02-24T17:12:49;7.90;85.90
69800;DHT22;67217;51.008;4.644;2023-02-24T17:15:21;7.90;85.30
69800;DHT22;67217;51.008;4.644;2023-02-24T17:17:48;7.80;85.40
69800;DHT22;67217;51.008;4.644;2023-02-24T17:20:18;7.80;85.20
69800;DHT22;67217;51.008;4.644;2023-02-24T17:22:47;7.80;85.10
69800;DHT22;67217;51.008;4.644;2023-02-24T17:25:17;7.90;84.80
69800;DHT22;67217;51.008;4.644;2023-02-24T17:27:45;8.00;83.80
69800;DHT22;67217;51.008;4.644;2023-02-24T17:30:15;8.20;82.40
69800;DHT22;67217;51.008;4.644;2023-02-24T17:32:43;8.20;81.70
69800;DHT22;67217;51.008;4.644;2023-02-24T17:35:11;8.20;81.20
69800;DHT22;67217;51.008;4.644;2023-02-24T17:37:39;8.10;81.50
69800;DHT22;67217;51.008;4.644;2023-02-24T17:40:08;8.00;81.80
69800;DHT22;67217;51.008;4.644;2023-02-24T17:42:36;8.00;81.80
69800;DHT22;67217;51.008;4.644;2023-02-24T17:45:04;8.00;81.50
69800;DHT22;67217;51.008;4.644;2023-02-24T17:47:33;8.00;79.00
69800;DHT22;67217;51.008;4.644;2023-02-24T17:50:02;7.90;78.60
69800;DHT22;67217;51.008;4.644;2023-02-24T17:52:30;7.90;78.50
69800;DHT22;67217;51.008;4.644;2023-02-24T17:54:58;7.80;77.70
69800;DHT22;67217;51.008;4.644;2023-02-24T17:57:26;7.70;77.90
69800;DHT22;67217;51.008;4.644;2023-02-24T17:59:55;7.70;77.50
69800;DHT22;67217;51.008;4.644;2023-02-24T18:02:22;7.60;77.60
69800;DHT22;67217;51.008;4.644;2023-02-24T18:04:51;7.70;77.50
69800;DHT22;67217;51.008;4.644;2023-02-24T18:07:19;7.50;77.50
69800;DHT22;67217;51.008;4.644;2023-02-24T18:09:47;7.40;77.90